createdAt,value
2022-08-29T00:00:23.698Z,94271.19
2022-08-29T00:02:53.925Z,94282.50
2022-08-29T00:05:25.157Z,94281.94
2022-08-29T00:07:52.659Z,94278.47
2022-08-29T00:10:20.020Z,94277.50
2022-08-29T00:12:47.250Z,94275.41
2022-08-29T00:15:14.620Z,94273.81
2022-08-29T00:17:41.717Z,94273.31
2022-08-29T00:20:10.750Z,94268.88
2022-08-29T00:22:37.639Z,94269.13
2022-08-29T00:25:06.459Z,94265.97
2022-08-29T00:27:33.790Z,94272.78
2022-08-29T00:30:01.109Z,94268.31
2022-08-29T00:32:35.010Z,94263.06
2022-08-29T00:35:09.280Z,94260.44
2022-08-29T00:37:36.876Z,94264.13
2022-08-29T00:40:05.968Z,94265.44
2022-08-29T00:42:35.061Z,94266.69
2022-08-29T00:45:04.169Z,94266.41
2022-08-29T00:47:36.480Z,94264.06
2022-08-29T00:50:07.770Z,94267.69
2022-08-29T00:52:45.028Z,94268.47
2022-08-29T00:55:15.208Z,94266.09
2022-08-29T00:57:45.609Z,94262.69
2022-08-29T01:00:15.030Z,94266.41
2022-08-29T01:02:42.994Z,94258.81
2022-08-29T01:05:11.939Z,94263.50
2022-08-29T01:07:40.790Z,94265.84
2022-08-29T01:10:13.576Z,94264.00
2022-08-29T01:12:40.911Z,94261.38
2022-08-29T01:15:12.527Z,94266.63
2022-08-29T01:17:44.552Z,94268.47
2022-08-29T01:20:43.873Z,94265.06
2022-08-29T01:23:15.859Z,94267.69
2022-08-29T01:25:47.167Z,94267.66
2022-08-29T01:28:17.326Z,94260.84
2022-08-29T01:30:59.379Z,94264.75
2022-08-29T01:33:26.909Z,94267.72
2022-08-29T01:35:53.952Z,94270.09
2022-08-29T01:38:27.805Z,94274.53
2022-08-29T01:41:02.100Z,94266.94
2022-08-29T01:43:29.630Z,94269.28
2022-08-29T01:45:57.613Z,94261.69
2022-08-29T01:48:24.891Z,94261.69
2022-08-29T01:50:52.033Z,94265.06
2022-08-29T01:53:19.659Z,94264.06
2022-08-29T01:55:46.450Z,94269.28
2022-08-29T01:58:14.043Z,94268.75
2022-08-29T02:00:41.173Z,94266.13
2022-08-29T02:03:07.977Z,94264.06
2022-08-29T02:05:35.260Z,94260.94
2022-08-29T02:08:02.187Z,94257.28
2022-08-29T02:10:30.469Z,94258.31
2022-08-29T02:12:57.870Z,94259.84
2022-08-29T02:15:24.767Z,94260.88
2022-08-29T02:17:51.467Z,94261.38
2022-08-29T02:20:18.260Z,94261.34
2022-08-29T02:22:45.050Z,94263.41
2022-08-29T02:25:30.851Z,94265.28
2022-08-29T02:27:58.409Z,94262.69
2022-08-29T02:30:25.794Z,94261.69
2022-08-29T02:32:53.073Z,94260.31
2022-08-29T02:35:19.960Z,94270.31
2022-08-29T02:37:47.817Z,94267.19
2022-08-29T02:40:14.715Z,94271.63
2022-08-29T02:42:41.581Z,94266.13
2022-08-29T02:45:08.743Z,94269.28
2022-08-29T02:47:38.613Z,94268.50
2022-08-29T02:50:07.709Z,94266.69
2022-08-29T02:52:37.289Z,94259.31
2022-08-29T02:55:04.820Z,94267.25
2022-08-29T02:57:31.614Z,94265.88
2022-08-29T02:59:58.390Z,94248.25
2022-08-29T03:02:25.219Z,94260.59
2022-08-29T03:04:51.931Z,94262.47
2022-08-29T03:07:18.911Z,94263.25
2022-08-29T03:09:45.687Z,94263.56
2022-08-29T03:12:12.461Z,94269.28
2022-08-29T03:14:39.497Z,94265.88
2022-08-29T03:17:06.305Z,94269.03
2022-08-29T03:19:37.532Z,94268.03
2022-08-29T03:22:04.385Z,94269.03
2022-08-29T03:24:31.311Z,94264.56
2022-08-29T03:26:58.738Z,94268.72
2022-08-29T03:29:26.270Z,94272.09
2022-08-29T03:31:53.909Z,94247.59
2022-08-29T03:34:20.939Z,94274.13
2022-08-29T03:36:47.721Z,94278.09
2022-08-29T03:39:14.510Z,94279.94
2022-08-29T03:41:41.300Z,94279.44
2022-08-29T03:44:08.097Z,94277.38
2022-08-29T03:46:36.355Z,94283.91
2022-08-29T03:49:03.391Z,94278.66
2022-08-29T03:51:31.740Z,94282.38
2022-08-29T03:53:58.753Z,94283.13
2022-08-29T03:56:26.039Z,94283.91
2022-08-29T03:58:53.517Z,94298.63
2022-08-29T04:01:24.559Z,94291.00
2022-08-29T04:03:51.741Z,94293.91
2022-08-29T04:06:19.467Z,94297.31
2022-08-29T04:08:47.571Z,94299.16
2022-08-29T04:11:15.531Z,94298.38
2022-08-29T04:13:42.559Z,94298.09
2022-08-29T04:16:11.472Z,94308.59
2022-08-29T04:18:38.610Z,94304.91
2022-08-29T04:21:06.326Z,94303.59
2022-08-29T04:23:34.338Z,94303.78
2022-08-29T04:26:26.840Z,94298.28
2022-08-29T04:28:48.095Z,94307.97
2022-08-29T04:31:20.473Z,94302.22
2022-08-29T04:33:48.528Z,94305.41
2022-08-29T04:36:15.410Z,94301.44
2022-08-29T04:38:42.729Z,94300.59
2022-08-29T04:41:14.801Z,94305.28
2022-08-29T04:43:42.517Z,94300.59
2022-08-29T04:46:16.394Z,94307.38
2022-08-29T04:48:51.110Z,94306.38
2022-08-29T04:51:17.897Z,94300.34
2022-08-29T04:53:44.775Z,94309.50
2022-08-29T04:56:12.776Z,94310.53
2022-08-29T04:58:41.231Z,94311.31
2022-08-29T05:01:13.992Z,94316.31
2022-08-29T05:03:40.759Z,94309.00
2022-08-29T05:06:12.022Z,94316.09
2022-08-29T05:08:40.285Z,94309.25
2022-08-29T05:11:11.618Z,94308.72
2022-08-29T05:13:38.415Z,94310.66
2022-08-29T05:16:06.778Z,94316.38
2022-08-29T05:18:34.075Z,94315.31
2022-08-29T05:21:01.173Z,94325.00
2022-08-29T05:23:27.987Z,94321.03
2022-08-29T05:25:59.423Z,94327.38
2022-08-29T05:28:27.415Z,94331.13
2022-08-29T05:30:54.507Z,94320.94
2022-08-29T05:33:21.524Z,94325.41
2022-08-29T05:35:48.423Z,94331.44
2022-08-29T05:38:15.452Z,94334.56
2022-08-29T05:40:42.904Z,94322.78
2022-08-29T05:43:10.730Z,94317.81
2022-08-29T05:45:39.074Z,94330.78
2022-08-29T05:48:08.024Z,94325.53
2022-08-29T05:50:42.073Z,94330.06
2022-08-29T05:53:10.415Z,94334.03
2022-08-29T05:55:44.359Z,94329.78
2022-08-29T05:58:12.538Z,94336.59
2022-08-29T06:00:44.006Z,94322.94
2022-08-29T06:03:11.637Z,94335.84
2022-08-29T06:05:39.251Z,94331.19
2022-08-29T06:08:06.607Z,94329.13
2022-08-29T06:10:34.541Z,94332.31
2022-08-29T06:13:01.506Z,94337.88
2022-08-29T06:15:29.929Z,94341.34
2022-08-29T06:17:57.064Z,94336.66
2022-08-29T06:20:23.959Z,94337.94
2022-08-29T06:22:50.610Z,94340.88
2022-08-29T06:25:37.931Z,94339.84
2022-08-29T06:28:04.704Z,94339.38
2022-08-29T06:30:33.624Z,94342.56
2022-08-29T06:33:01.446Z,94338.41
2022-08-29T06:35:28.665Z,94331.84
2022-08-29T06:37:55.527Z,94332.91
2022-08-29T06:40:22.610Z,94331.63
2022-08-29T06:42:49.546Z,94336.63
2022-08-29T06:45:16.354Z,94341.63
2022-08-29T06:47:43.541Z,94341.63
2022-08-29T06:50:10.397Z,94341.88
2022-08-29T06:52:37.328Z,94347.16
2022-08-29T06:55:05.817Z,94357.69
2022-08-29T06:57:32.654Z,94358.75
2022-08-29T06:59:59.389Z,94364.53
2022-08-29T07:02:28.550Z,94378.69
2022-08-29T07:04:55.585Z,94366.56
2022-08-29T07:07:22.324Z,94393.75
2022-08-29T07:09:49.194Z,94403.88
2022-08-29T07:12:16.064Z,94414.81
2022-08-29T07:14:43.214Z,94415.09
2022-08-29T07:17:09.977Z,94422.75
2022-08-29T07:19:37.275Z,94406.38
2022-08-29T07:22:05.214Z,94408.06
2022-08-29T07:24:32.707Z,94419.69
2022-08-29T07:26:59.396Z,94419.78
2022-08-29T07:29:26.376Z,94422.66
2022-08-29T07:31:53.509Z,94428.53
2022-08-29T07:34:20.910Z,94424.47
2022-08-29T07:36:48.161Z,94425.16
2022-08-29T07:39:17.639Z,94423.09
2022-08-29T07:41:44.976Z,94424.31
2022-08-29T07:44:12.950Z,94423.91
2022-08-29T07:46:40.039Z,94429.31
2022-08-29T07:49:07.302Z,94430.03
2022-08-29T07:51:34.526Z,94422.75
2022-08-29T07:54:01.899Z,94419.94
2022-08-29T07:56:37.767Z,94429.09
2022-08-29T07:59:05.487Z,94420.09
2022-08-29T08:01:32.778Z,94433.31
2022-08-29T08:03:59.645Z,94419.91
2022-08-29T08:06:27.553Z,94419.22
2022-08-29T08:08:54.985Z,94425.97
2022-08-29T08:11:23.209Z,94424.09
2022-08-29T08:13:50.436Z,94417.41
2022-08-29T08:16:20.655Z,94429.34
2022-08-29T08:18:48.085Z,94443.66
2022-08-29T08:21:14.855Z,94438.69
2022-08-29T08:23:41.867Z,94447.59
2022-08-29T08:26:10.856Z,94453.72
2022-08-29T08:28:37.879Z,94448.41
2022-08-29T08:31:07.117Z,94453.63
2022-08-29T08:33:35.428Z,94452.41
2022-08-29T08:36:04.251Z,94450.53
2022-08-29T08:38:31.735Z,94457.06
2022-08-29T08:41:07.508Z,94447.66
2022-08-29T08:43:43.497Z,94449.97
2022-08-29T08:46:10.457Z,94447.06
2022-08-29T08:48:38.936Z,94462.91
2022-08-29T08:51:18.856Z,94464.78
2022-08-29T08:53:49.455Z,94450.69
2022-08-29T08:56:32.122Z,94443.66
2022-08-29T08:59:43.217Z,94453.06
2022-08-29T09:02:42.568Z,94439.84
2022-08-29T09:05:36.935Z,94442.56
2022-08-29T09:08:20.296Z,94442.41
2022-08-29T09:11:11.470Z,94454.66
2022-08-29T09:13:57.166Z,94454.50
2022-08-29T09:16:35.024Z,94456.25
2022-08-29T09:19:09.626Z,94457.34
2022-08-29T09:21:48.527Z,94456.41
2022-08-29T09:24:47.194Z,94458.50
2022-08-29T09:27:24.406Z,94451.94
2022-08-29T09:30:01.906Z,94444.53
2022-08-29T09:32:28.757Z,94439.50
2022-08-29T09:35:08.502Z,94445.59
2022-08-29T09:37:35.937Z,94430.28
2022-08-29T09:40:10.888Z,94440.69
2022-08-29T09:42:40.920Z,94438.16
2022-08-29T09:45:25.271Z,94442.38
2022-08-29T09:48:15.908Z,94443.59
2022-08-29T09:50:43.310Z,94442.47
2022-08-29T09:53:24.344Z,94444.53
2022-08-29T09:55:52.726Z,94437.47
2022-08-29T09:58:20.129Z,94450.72
2022-08-29T10:01:10.085Z,94450.25
2022-08-29T10:04:03.613Z,94439.34
2022-08-29T10:06:44.267Z,94437.56
2022-08-29T10:09:25.978Z,94454.84
2022-08-29T10:11:57.217Z,94451.91
2022-08-29T10:14:35.572Z,94439.44
2022-08-29T10:17:26.786Z,94451.13
2022-08-29T10:19:53.537Z,94425.72
2022-08-29T10:22:27.858Z,94436.31
2022-08-29T10:25:11.976Z,94456.72
2022-08-29T10:28:00.536Z,94446.59
2022-08-29T10:30:30.256Z,94458.81
2022-08-29T10:33:04.717Z,94448.59
2022-08-29T10:35:48.325Z,94444.56
2022-08-29T10:38:33.076Z,94447.53
2022-08-29T10:41:19.490Z,94443.56
2022-08-29T10:43:52.156Z,94429.50
2022-08-29T10:46:43.956Z,94424.94
2022-08-29T10:49:32.097Z,94423.50
2022-08-29T10:52:35.390Z,94425.38
2022-08-29T10:55:06.851Z,94425.16
2022-08-29T10:57:42.606Z,94427.09
2022-08-29T11:00:13.097Z,94427.78
2022-08-29T11:02:48.587Z,94432.81
2022-08-29T11:05:23.576Z,94432.16
2022-08-29T11:08:03.844Z,94434.63
2022-08-29T11:10:40.587Z,94443.22
2022-08-29T11:13:38.574Z,94440.03
2022-08-29T11:16:13.824Z,94435.13
2022-08-29T11:18:51.654Z,94436.56
2022-08-29T11:21:46.619Z,94425.75
2022-08-29T11:24:16.548Z,94425.44
2022-08-29T11:26:43.207Z,94430.75
2022-08-29T11:29:34.726Z,94435.47
2022-08-29T11:32:07.666Z,94440.00
2022-08-29T11:34:40.356Z,94442.59
2022-08-29T11:37:25.804Z,94435.38
2022-08-29T11:40:10.354Z,94442.38
2022-08-29T11:42:57.512Z,94437.97
2022-08-29T11:45:35.696Z,94431.47
2022-08-29T11:48:10.399Z,94432.25
2022-08-29T11:50:38.824Z,94421.84
2022-08-29T11:53:21.102Z,94435.78
2022-08-29T11:56:28.166Z,94427.00
2022-08-29T11:58:57.980Z,94418.41
2022-08-29T12:01:24.669Z,94426.06
2022-08-29T12:03:54.698Z,94428.59
2022-08-29T12:06:53.479Z,94427.41
2022-08-29T12:09:44.926Z,94417.84
2022-08-29T12:12:12.981Z,94420.06
2022-08-29T12:14:41.359Z,94418.53
2022-08-29T12:17:51.226Z,94427.22
2022-08-29T12:20:36.477Z,94408.81
2022-08-29T12:23:15.340Z,94414.94
2022-08-29T12:26:15.937Z,94411.97
2022-08-29T12:28:57.186Z,94411.78
2022-08-29T12:31:56.925Z,94409.91
2022-08-29T12:34:45.807Z,94407.25
2022-08-29T12:37:28.769Z,94401.06
2022-08-29T12:40:17.779Z,94406.44
2022-08-29T12:43:06.274Z,94405.00
2022-08-29T12:45:36.119Z,94392.38
2022-08-29T12:48:13.639Z,94378.53
2022-08-29T12:50:45.988Z,94393.28
2022-08-29T12:53:15.856Z,94387.75
2022-08-29T12:55:45.436Z,94379.59
2022-08-29T12:58:14.636Z,94383.28
2022-08-29T13:00:42.116Z,94388.34
2022-08-29T13:03:15.123Z,94382.88
2022-08-29T13:05:42.746Z,94374.97
2022-08-29T13:08:33.287Z,94384.59
2022-08-29T13:11:08.868Z,94384.38
2022-08-29T13:13:36.556Z,94381.75
2022-08-29T13:16:07.993Z,94378.84
2022-08-29T13:18:44.576Z,94378.56
2022-08-29T13:21:30.056Z,94371.00
2022-08-29T13:24:16.329Z,94361.63
2022-08-29T13:27:04.915Z,94361.84
2022-08-29T13:29:42.151Z,94350.06
2022-08-29T13:32:24.202Z,94347.41
2022-08-29T13:35:06.515Z,94348.41
2022-08-29T13:37:37.497Z,94348.72
2022-08-29T13:40:37.268Z,94350.56
2022-08-29T13:43:05.797Z,94352.97
2022-08-29T13:45:32.867Z,94350.53
2022-08-29T13:48:12.798Z,94345.75
2022-08-29T13:50:39.919Z,94339.34
2022-08-29T13:53:07.077Z,94337.91
2022-08-29T13:55:34.738Z,94336.84
2022-08-29T13:58:01.704Z,94332.88
2022-08-29T14:00:32.437Z,94336.69
2022-08-29T14:03:12.598Z,94340.09
2022-08-29T14:05:39.763Z,94329.94
2022-08-29T14:08:06.956Z,94328.63
2022-08-29T14:10:34.116Z,94330.19
2022-08-29T14:13:01.127Z,94321.63
2022-08-29T14:15:27.986Z,94326.84
2022-08-29T14:17:54.797Z,94327.31
2022-08-29T14:20:22.137Z,94329.06
2022-08-29T14:22:49.318Z,94322.56
2022-08-29T14:25:18.336Z,94322.19
2022-08-29T14:27:45.406Z,94316.97
2022-08-29T14:30:13.741Z,94319.53
2022-08-29T14:32:40.599Z,94316.78
2022-08-29T14:35:07.961Z,94317.47
2022-08-29T14:37:35.358Z,94317.22
2022-08-29T14:40:03.951Z,94315.47
2022-08-29T14:42:32.056Z,94310.06
2022-08-29T14:44:58.858Z,94307.78
2022-08-29T14:47:25.636Z,94307.59
2022-08-29T14:49:52.527Z,94304.28
2022-08-29T14:52:19.377Z,94306.63
2022-08-29T14:54:46.106Z,94301.38
2022-08-29T14:57:13.006Z,94298.47
2022-08-29T14:59:40.063Z,94312.94
2022-08-29T15:02:07.837Z,94313.84
2022-08-29T15:04:35.623Z,94305.97
2022-08-29T15:07:13.654Z,94303.34
2022-08-29T15:09:41.992Z,94300.16
2022-08-29T15:12:09.047Z,94299.59
2022-08-29T15:14:36.021Z,94299.34
2022-08-29T15:17:04.218Z,94298.56
2022-08-29T15:20:17.724Z,94303.06
2022-08-29T15:22:18.126Z,94292.66
2022-08-29T15:24:45.276Z,94291.06
2022-08-29T15:27:12.498Z,94299.81
2022-08-29T15:29:42.527Z,94291.19
2022-08-29T15:32:11.676Z,94301.38
2022-08-29T15:34:39.815Z,94301.38
2022-08-29T15:37:07.956Z,94304.06
2022-08-29T15:39:35.016Z,94289.63
2022-08-29T15:42:04.086Z,94296.94
2022-08-29T15:44:30.896Z,94303.59
2022-08-29T15:46:58.351Z,94285.09
2022-08-29T15:49:26.596Z,94285.59
2022-08-29T15:51:53.978Z,94291.97
2022-08-29T15:54:22.286Z,94287.16
2022-08-29T15:56:49.616Z,94295.13
2022-08-29T15:59:17.274Z,94291.28
2022-08-29T16:01:47.164Z,94285.78
2022-08-29T16:04:15.079Z,94279.88
2022-08-29T16:06:41.946Z,94278.50
2022-08-29T16:09:15.516Z,94282.56
2022-08-29T16:11:49.233Z,94290.31
2022-08-29T16:14:57.666Z,94285.25
2022-08-29T16:17:04.566Z,94274.16
2022-08-29T16:19:31.656Z,94275.50
2022-08-29T16:22:00.290Z,94282.56
2022-08-29T16:24:31.945Z,94279.94
2022-08-29T16:26:59.769Z,94285.06
2022-08-29T16:29:27.095Z,94278.06
2022-08-29T16:31:57.802Z,94281.50
2022-08-29T16:34:28.354Z,94277.84
2022-08-29T16:36:56.716Z,94284.16
2022-08-29T16:39:23.735Z,94285.00
2022-08-29T16:41:50.456Z,94286.53
2022-08-29T16:44:17.278Z,94285.06
2022-08-29T16:46:44.026Z,94287.69
2022-08-29T16:49:10.797Z,94291.38
2022-08-29T16:51:37.647Z,94293.28
2022-08-29T16:54:04.474Z,94288.56
2022-08-29T16:56:32.917Z,94285.63
2022-08-29T16:59:00.382Z,94298.00
2022-08-29T17:01:39.207Z,94291.56
2022-08-29T17:04:10.716Z,94294.84
2022-08-29T17:06:39.276Z,94293.56
2022-08-29T17:09:08.840Z,94305.34
2022-08-29T17:11:37.227Z,94302.53
2022-08-29T17:14:05.736Z,94302.97
2022-08-29T17:16:32.695Z,94305.44
2022-08-29T17:19:00.075Z,94306.34
2022-08-29T17:21:27.299Z,94307.59
2022-08-29T17:23:55.472Z,94312.91
2022-08-29T17:26:22.892Z,94311.38
2022-08-29T17:28:51.257Z,94313.22
2022-08-29T17:31:18.575Z,94309.13
2022-08-29T17:33:46.156Z,94319.84
2022-08-29T17:36:13.536Z,94313.94
2022-08-29T17:38:42.281Z,94319.31
2022-08-29T17:41:15.403Z,94327.25
2022-08-29T17:43:45.342Z,94326.25
2022-08-29T17:46:12.250Z,94329.81
2022-08-29T17:48:39.216Z,94335.06
2022-08-29T17:51:06.628Z,94328.53
2022-08-29T17:53:33.548Z,94340.59
2022-08-29T17:56:17.226Z,94346.47
2022-08-29T17:58:44.025Z,94330.28
2022-08-29T18:01:16.223Z,94343.94
2022-08-29T18:03:44.690Z,94346.41
2022-08-29T18:06:14.671Z,94356.00
2022-08-29T18:08:48.128Z,94350.28
2022-08-29T18:11:16.181Z,94361.66
2022-08-29T18:13:43.346Z,94365.34
2022-08-29T18:16:10.648Z,94359.81
2022-08-29T18:18:38.992Z,94360.66
2022-08-29T18:21:06.400Z,94369.63
2022-08-29T18:23:33.688Z,94370.97
2022-08-29T18:26:01.014Z,94373.34
2022-08-29T18:28:28.346Z,94372.56
2022-08-29T18:30:55.380Z,94382.34
2022-08-29T18:33:22.795Z,94381.84
2022-08-29T18:35:50.078Z,94378.69
2022-08-29T18:38:16.962Z,94377.91
2022-08-29T18:40:44.791Z,94370.22
2022-08-29T18:43:12.451Z,94377.38
2022-08-29T18:45:40.631Z,94380.28
2022-08-29T18:48:08.125Z,94381.06
2022-08-29T18:50:35.106Z,94387.66
2022-08-29T18:53:07.852Z,94388.97
2022-08-29T18:55:35.146Z,94385.31
2022-08-29T18:58:02.242Z,94388.75
2022-08-29T19:00:29.281Z,94390.84
2022-08-29T19:02:58.028Z,94382.66
2022-08-29T19:05:26.393Z,94387.16
2022-08-29T19:07:53.634Z,94375.56
2022-08-29T19:10:21.208Z,94384.78
2022-08-29T19:12:49.071Z,94382.44
2022-08-29T19:15:17.811Z,94382.44
2022-08-29T19:17:44.531Z,94382.44
2022-08-29T19:20:31.756Z,94381.94
2022-08-29T19:22:59.005Z,94381.69
2022-08-29T19:25:25.866Z,94368.75
2022-08-29T19:27:52.677Z,94383.22
2022-08-29T19:30:19.762Z,94384.53
2022-08-29T19:32:46.762Z,94378.72
2022-08-29T19:35:14.036Z,94382.97
2022-08-29T19:37:42.476Z,94389.81
2022-08-29T19:40:11.382Z,94388.75
2022-08-29T19:42:38.827Z,94394.53
2022-08-29T19:45:08.394Z,94386.88
2022-08-29T19:47:35.166Z,94392.16
2022-08-29T19:50:03.106Z,94391.88
2022-08-29T19:52:29.949Z,94391.88
2022-08-29T19:55:00.260Z,94395.03
2022-08-29T19:57:27.440Z,94399.22
2022-08-29T19:59:54.789Z,94392.34
2022-08-29T20:02:21.663Z,94400.25
2022-08-29T20:04:48.420Z,94395.50
2022-08-29T20:07:15.057Z,94402.09
2022-08-29T20:09:42.576Z,94400.50
2022-08-29T20:12:09.614Z,94405.97
2022-08-29T20:14:37.416Z,94409.13
2022-08-29T20:17:09.521Z,94414.41
2022-08-29T20:19:39.397Z,94409.13
2022-08-29T20:22:07.188Z,94399.91
2022-08-29T20:24:33.951Z,94410.19
2022-08-29T20:27:01.538Z,94411.19
2022-08-29T20:29:29.558Z,94411.97
2022-08-29T20:31:57.322Z,94411.94
2022-08-29T20:34:29.398Z,94410.25
2022-08-29T20:37:09.099Z,94412.63
2022-08-29T20:39:38.242Z,94421.59
2022-08-29T20:42:05.477Z,94427.34
2022-08-29T20:44:34.349Z,94428.94
2022-08-29T20:47:01.204Z,94437.25
2022-08-29T20:49:28.088Z,94440.09
2022-08-29T20:51:54.840Z,94440.81
2022-08-29T20:54:23.869Z,94424.28
2022-08-29T20:56:51.515Z,94427.22
2022-08-29T20:59:18.563Z,94431.31
2022-08-29T21:01:45.443Z,94431.59
2022-08-29T21:04:31.662Z,94433.94
2022-08-29T21:07:07.067Z,94439.00
2022-08-29T21:09:35.960Z,94440.81
2022-08-29T21:12:02.853Z,94446.47
2022-08-29T21:14:29.511Z,94440.91
2022-08-29T21:16:57.161Z,94436.91
2022-08-29T21:19:24.761Z,94448.00
2022-08-29T21:21:51.517Z,94450.19
2022-08-29T21:24:18.403Z,94450.38
2022-08-29T21:26:45.270Z,94443.16
2022-08-29T21:29:11.937Z,94446.78
2022-08-29T21:31:38.965Z,94443.16
2022-08-29T21:34:08.540Z,94448.38
2022-08-29T21:36:36.170Z,94445.13
2022-08-29T21:39:04.276Z,94444.28
2022-08-29T21:41:32.293Z,94439.59
2022-08-29T21:43:59.265Z,94447.06
2022-08-29T21:46:29.340Z,94445.22
2022-08-29T21:48:59.457Z,94450.78
2022-08-29T21:51:26.747Z,94453.56
2022-08-29T21:53:55.697Z,94448.78
2022-08-29T21:56:23.208Z,94446.34
2022-08-29T21:58:53.632Z,94444.34
2022-08-29T22:01:26.940Z,94437.81
2022-08-29T22:03:54.618Z,94447.41
2022-08-29T22:06:21.857Z,94445.63
2022-08-29T22:08:48.649Z,94439.34
2022-08-29T22:11:24.648Z,94443.78
2022-08-29T22:14:04.017Z,94440.56
2022-08-29T22:16:30.919Z,94439.78
2022-08-29T22:19:00.332Z,94439.19
2022-08-29T22:21:29.133Z,94441.00
2022-08-29T22:23:56.047Z,94438.91
2022-08-29T22:26:22.735Z,94439.16
2022-08-29T22:28:49.849Z,94444.03
2022-08-29T22:31:16.837Z,94438.69
2022-08-29T22:33:43.814Z,94436.56
2022-08-29T22:36:12.907Z,94442.31
2022-08-29T22:38:43.810Z,94440.72
2022-08-29T22:41:12.865Z,94445.66
2022-08-29T22:43:39.989Z,94442.16
2022-08-29T22:46:12.300Z,94447.19
2022-08-29T22:48:39.656Z,94450.00
2022-08-29T22:51:11.897Z,94442.56
2022-08-29T22:53:38.855Z,94451.28
2022-08-29T22:56:07.634Z,94443.53
2022-08-29T22:58:36.434Z,94444.47
2022-08-29T23:01:04.483Z,94442.13
2022-08-29T23:03:32.234Z,94450.25
2022-08-29T23:05:59.650Z,94445.53
2022-08-29T23:08:26.551Z,94450.22
2022-08-29T23:10:54.547Z,94435.69
2022-08-29T23:13:22.808Z,94438.00
2022-08-29T23:15:49.715Z,94444.19
2022-08-29T23:18:16.636Z,94446.25
2022-08-29T23:20:43.450Z,94444.97
2022-08-29T23:23:13.934Z,94439.19
2022-08-29T23:25:41.195Z,94437.97
2022-08-29T23:28:07.996Z,94434.41
2022-08-29T23:30:34.834Z,94437.75
2022-08-29T23:33:01.658Z,94439.59
2022-08-29T23:35:28.488Z,94432.22
2022-08-29T23:37:55.245Z,94440.34
2022-08-29T23:40:22.048Z,94433.53
2022-08-29T23:42:48.993Z,94435.41
2022-08-29T23:45:15.815Z,94426.72
2022-08-29T23:47:42.665Z,94431.19
2022-08-29T23:50:10.014Z,94440.72
2022-08-29T23:52:36.894Z,94438.53
2022-08-29T23:55:04.727Z,94442.09
2022-08-29T23:57:31.507Z,94432.13
